sensor_id;sensor_type;location;lat;lon;timestamp;pressure;altitude;pressure_sealevel;temperature;humidity
41102;BME280;26845;50.190;19.178;2022-10-31T00:01:00;99056.54;;;11.92;81.85
41102;BME280;26845;50.190;19.178;2022-10-31T00:03:26;99047.53;;;11.84;81.49
41102;BME280;26845;50.190;19.178;2022-10-31T00:05:52;99048.81;;;11.78;82.00
41102;BME280;26845;50.190;19.178;2022-10-31T00:08:18;99047.28;;;11.72;81.78
41102;BME280;26845;50.190;19.178;2022-10-31T00:10:45;99048.05;;;11.64;81.33
41102;BME280;26845;50.190;19.178;2022-10-31T00:13:12;99055.04;;;11.53;81.39
41102;BME280;26845;50.190;19.178;2022-10-31T00:15:40;99054.08;;;11.46;81.45
41102;BME280;26845;50.190;19.178;2022-10-31T00:18:07;99053.44;;;11.38;81.35
41102;BME280;26845;50.190;19.178;2022-10-31T00:20:34;99051.68;;;11.31;81.36
41102;BME280;26845;50.190;19.178;2022-10-31T00:23:01;99051.86;;;11.23;81.49
41102;BME280;26845;50.190;19.178;2022-10-31T00:25:29;99063.10;;;11.18;81.61
41102;BME280;26845;50.190;19.178;2022-10-31T00:27:55;99058.17;;;11.15;81.86
41102;BME280;26845;50.190;19.178;2022-10-31T00:30:21;99058.23;;;11.12;81.56
41102;BME280;26845;50.190;19.178;2022-10-31T00:32:46;99063.25;;;11.13;81.99
41102;BME280;26845;50.190;19.178;2022-10-31T00:35:12;99063.73;;;11.15;82.12
41102;BME280;26845;50.190;19.178;2022-10-31T00:37:38;99062.05;;;11.16;82.13
41102;BME280;26845;50.190;19.178;2022-10-31T00:40:04;99056.15;;;11.18;82.16
41102;BME280;26845;50.190;19.178;2022-10-31T00:42:31;99059.45;;;11.20;82.28
41102;BME280;26845;50.190;19.178;2022-10-31T00:44:56;99053.58;;;11.21;82.49
41102;BME280;26845;50.190;19.178;2022-10-31T00:47:22;99059.50;;;11.17;82.43
41102;BME280;26845;50.190;19.178;2022-10-31T00:49:47;99058.17;;;11.15;82.35
41102;BME280;26845;50.190;19.178;2022-10-31T00:52:13;99061.51;;;11.03;82.02
41102;BME280;26845;50.190;19.178;2022-10-31T00:54:39;99062.58;;;10.93;81.86
41102;BME280;26845;50.190;19.178;2022-10-31T00:57:04;99058.00;;;10.86;81.96
41102;BME280;26845;50.190;19.178;2022-10-31T00:59:30;99052.49;;;10.84;82.10
41102;BME280;26845;50.190;19.178;2022-10-31T01:01:55;99061.41;;;10.83;82.21
41102;BME280;26845;50.190;19.178;2022-10-31T01:04:21;99058.11;;;10.81;82.00
41102;BME280;26845;50.190;19.178;2022-10-31T01:06:47;99062.66;;;10.77;82.09
41102;BME280;26845;50.190;19.178;2022-10-31T01:09:13;99066.06;;;10.74;82.01
41102;BME280;26845;50.190;19.178;2022-10-31T01:11:38;99067.31;;;10.68;81.81
41102;BME280;26845;50.190;19.178;2022-10-31T01:14:04;99065.21;;;10.62;81.88
41102;BME280;26845;50.190;19.178;2022-10-31T01:16:29;99066.38;;;10.58;81.98
41102;BME280;26845;50.190;19.178;2022-10-31T01:18:55;99064.55;;;10.54;81.70
41102;BME280;26845;50.190;19.178;2022-10-31T01:21:23;99060.48;;;10.49;81.82
41102;BME280;26845;50.190;19.178;2022-10-31T01:23:52;99065.56;;;10.44;81.70
41102;BME280;26845;50.190;19.178;2022-10-31T01:26:21;99064.26;;;10.42;81.86
41102;BME280;26845;50.190;19.178;2022-10-31T01:28:53;99062.06;;;10.39;81.75
41102;BME280;26845;50.190;19.178;2022-10-31T01:31:23;99067.75;;;10.33;81.74
41102;BME280;26845;50.190;19.178;2022-10-31T01:33:51;99067.87;;;10.26;81.64
41102;BME280;26845;50.190;19.178;2022-10-31T01:36:22;99066.95;;;10.17;81.65
41102;BME280;26845;50.190;19.178;2022-10-31T01:38:52;99065.73;;;10.06;81.80
41102;BME280;26845;50.190;19.178;2022-10-31T01:41:22;99070.52;;;10.03;81.96
41102;BME280;26845;50.190;19.178;2022-10-31T01:43:53;99059.41;;;10.03;82.14
41102;BME280;26845;50.190;19.178;2022-10-31T01:49:00;99062.72;;;10.05;82.35
41102;BME280;26845;50.190;19.178;2022-10-31T01:51:36;99063.48;;;10.08;82.46
41102;BME280;26845;50.190;19.178;2022-10-31T01:54:02;99064.55;;;10.10;82.53
41102;BME280;26845;50.190;19.178;2022-10-31T01:56:34;99061.23;;;10.10;82.49
41102;BME280;26845;50.190;19.178;2022-10-31T01:59:04;99059.57;;;10.09;82.62
41102;BME280;26845;50.190;19.178;2022-10-31T02:01:33;99059.89;;;10.08;82.60
41102;BME280;26845;50.190;19.178;2022-10-31T02:03:59;99055.50;;;10.04;82.67
41102;BME280;26845;50.190;19.178;2022-10-31T02:06:47;99061.63;;;10.04;82.60
41102;BME280;26845;50.190;19.178;2022-10-31T02:09:16;99061.38;;;10.03;82.44
41102;BME280;26845;50.190;19.178;2022-10-31T02:11:46;99061.17;;;9.99;82.37
41102;BME280;26845;50.190;19.178;2022-10-31T02:14:13;99061.47;;;9.98;82.31
41102;BME280;26845;50.190;19.178;2022-10-31T02:16:38;99063.72;;;9.96;82.33
41102;BME280;26845;50.190;19.178;2022-10-31T02:19:06;99056.28;;;9.94;82.52
41102;BME280;26845;50.190;19.178;2022-10-31T02:21:47;99062.70;;;9.91;82.65
41102;BME280;26845;50.190;19.178;2022-10-31T02:27:13;99052.77;;;9.88;82.64
41102;BME280;26845;50.190;19.178;2022-10-31T02:33:21;99055.69;;;9.80;82.23
41102;BME280;26845;50.190;19.178;2022-10-31T02:36:23;99063.16;;;9.66;82.36
41102;BME280;26845;50.190;19.178;2022-10-31T02:47:14;99063.06;;;9.38;84.05
41102;BME280;26845;50.190;19.178;2022-10-31T02:52:30;99070.81;;;9.39;84.00
41102;BME280;26845;50.190;19.178;2022-10-31T02:54:57;99073.52;;;9.44;84.96
41102;BME280;26845;50.190;19.178;2022-10-31T02:57:31;99069.06;;;9.45;84.59
41102;BME280;26845;50.190;19.178;2022-10-31T03:00:00;99072.73;;;9.41;84.34
41102;BME280;26845;50.190;19.178;2022-10-31T03:05:11;99079.02;;;9.46;84.24
41102;BME280;26845;50.190;19.178;2022-10-31T03:10:41;99081.83;;;9.44;84.14
41102;BME280;26845;50.190;19.178;2022-10-31T03:13:35;99081.13;;;9.36;83.90
41102;BME280;26845;50.190;19.178;2022-10-31T03:16:55;99087.89;;;9.30;83.81
41102;BME280;26845;50.190;19.178;2022-10-31T03:19:10;99090.98;;;9.28;83.88
41102;BME280;26845;50.190;19.178;2022-10-31T03:21:55;99093.19;;;9.29;83.87
41102;BME280;26845;50.190;19.178;2022-10-31T03:24:36;99089.59;;;9.28;83.79
41102;BME280;26845;50.190;19.178;2022-10-31T03:27:02;99087.36;;;9.28;83.85
41102;BME280;26845;50.190;19.178;2022-10-31T03:29:33;99094.05;;;9.27;83.95
41102;BME280;26845;50.190;19.178;2022-10-31T03:32:04;99088.50;;;9.27;84.15
41102;BME280;26845;50.190;19.178;2022-10-31T03:34:33;99091.02;;;9.26;84.16
41102;BME280;26845;50.190;19.178;2022-10-31T03:37:04;99084.38;;;9.24;84.16
41102;BME280;26845;50.190;19.178;2022-10-31T03:39:37;99090.84;;;9.19;83.85
41102;BME280;26845;50.190;19.178;2022-10-31T03:42:15;99088.17;;;9.12;83.88
41102;BME280;26845;50.190;19.178;2022-10-31T03:45:04;99095.17;;;9.07;83.58
41102;BME280;26845;50.190;19.178;2022-10-31T03:47:35;99091.09;;;9.01;83.60
41102;BME280;26845;50.190;19.178;2022-10-31T03:50:03;99099.72;;;9.00;83.79
41102;BME280;26845;50.190;19.178;2022-10-31T03:52:57;99105.77;;;9.02;83.76
41102;BME280;26845;50.190;19.178;2022-10-31T03:55:39;99100.86;;;8.96;83.64
41102;BME280;26845;50.190;19.178;2022-10-31T03:58:14;99107.00;;;8.93;83.79
41102;BME280;26845;50.190;19.178;2022-10-31T04:00:44;99108.45;;;8.91;83.77
41102;BME280;26845;50.190;19.178;2022-10-31T04:03:22;99108.70;;;8.92;83.90
41102;BME280;26845;50.190;19.178;2022-10-31T04:05:59;99110.66;;;8.91;83.75
41102;BME280;26845;50.190;19.178;2022-10-31T04:08:30;99107.06;;;8.91;83.81
41102;BME280;26845;50.190;19.178;2022-10-31T04:10:59;99110.38;;;8.90;83.83
41102;BME280;26845;50.190;19.178;2022-10-31T04:13:31;99113.11;;;8.93;83.96
41102;BME280;26845;50.190;19.178;2022-10-31T04:15:58;99116.98;;;8.94;84.00
41102;BME280;26845;50.190;19.178;2022-10-31T04:18:25;99116.98;;;8.94;83.94
41102;BME280;26845;50.190;19.178;2022-10-31T04:20:59;99116.20;;;8.91;83.74
41102;BME280;26845;50.190;19.178;2022-10-31T04:23:27;99121.77;;;8.89;83.67
41102;BME280;26845;50.190;19.178;2022-10-31T04:25:53;99120.20;;;8.83;83.48
41102;BME280;26845;50.190;19.178;2022-10-31T04:28:19;99118.84;;;8.80;83.38
41102;BME280;26845;50.190;19.178;2022-10-31T04:30:46;99117.71;;;8.81;83.42
41102;BME280;26845;50.190;19.178;2022-10-31T04:33:11;99125.77;;;8.80;83.22
41102;BME280;26845;50.190;19.178;2022-10-31T04:35:37;99127.19;;;8.77;83.38
41102;BME280;26845;50.190;19.178;2022-10-31T04:38:02;99120.07;;;8.71;83.40
41102;BME280;26845;50.190;19.178;2022-10-31T04:40:28;99122.59;;;8.68;83.39
41102;BME280;26845;50.190;19.178;2022-10-31T04:42:54;99122.92;;;8.64;83.27
41102;BME280;26845;50.190;19.178;2022-10-31T04:45:19;99119.34;;;8.63;83.33
41102;BME280;26845;50.190;19.178;2022-10-31T04:47:45;99120.19;;;8.61;83.31
41102;BME280;26845;50.190;19.178;2022-10-31T04:50:11;99123.77;;;8.62;83.30
41102;BME280;26845;50.190;19.178;2022-10-31T04:52:39;99120.98;;;8.64;83.43
41102;BME280;26845;50.190;19.178;2022-10-31T04:55:06;99118.48;;;8.65;83.46
41102;BME280;26845;50.190;19.178;2022-10-31T04:57:32;99121.80;;;8.65;83.44
41102;BME280;26845;50.190;19.178;2022-10-31T04:59:57;99120.16;;;8.64;83.38
41102;BME280;26845;50.190;19.178;2022-10-31T05:02:23;99121.00;;;8.62;83.58
41102;BME280;26845;50.190;19.178;2022-10-31T05:04:49;99124.09;;;8.60;83.65
41102;BME280;26845;50.190;19.178;2022-10-31T05:07:15;99120.52;;;8.57;83.70
41102;BME280;26845;50.190;19.178;2022-10-31T05:09:40;99124.14;;;8.55;83.81
41102;BME280;26845;50.190;19.178;2022-10-31T05:12:06;99118.88;;;8.53;83.69
41102;BME280;26845;50.190;19.178;2022-10-31T05:14:31;99123.35;;;8.52;83.70
41102;BME280;26845;50.190;19.178;2022-10-31T05:16:57;99120.36;;;8.48;83.54
41102;BME280;26845;50.190;19.178;2022-10-31T05:19:22;99121.45;;;8.47;83.71
41102;BME280;26845;50.190;19.178;2022-10-31T05:21:48;99128.16;;;8.44;83.40
41102;BME280;26845;50.190;19.178;2022-10-31T05:24:14;99130.41;;;8.37;83.20
41102;BME280;26845;50.190;19.178;2022-10-31T05:26:39;99126.38;;;8.26;83.35
41102;BME280;26845;50.190;19.178;2022-10-31T05:29:05;99132.48;;;8.26;83.51
41102;BME280;26845;50.190;19.178;2022-10-31T05:31:31;99134.73;;;8.21;83.50
41102;BME280;26845;50.190;19.178;2022-10-31T05:33:56;99138.69;;;8.15;83.32
41102;BME280;26845;50.190;19.178;2022-10-31T05:36:22;99144.10;;;7.99;83.29
41102;BME280;26845;50.190;19.178;2022-10-31T05:38:47;99139.81;;;7.82;83.26
41102;BME280;26845;50.190;19.178;2022-10-31T05:41:13;99143.31;;;7.64;83.30
41102;BME280;26845;50.190;19.178;2022-10-31T05:43:38;99148.09;;;7.53;83.53
41102;BME280;26845;50.190;19.178;2022-10-31T05:46:04;99144.28;;;7.47;83.84
41102;BME280;26845;50.190;19.178;2022-10-31T05:48:30;99152.85;;;7.45;84.08
41102;BME280;26845;50.190;19.178;2022-10-31T05:50:55;99156.72;;;7.47;84.36
41102;BME280;26845;50.190;19.178;2022-10-31T05:53:21;99152.61;;;7.41;84.16
41102;BME280;26845;50.190;19.178;2022-10-31T05:55:46;99159.83;;;7.40;84.20
41102;BME280;26845;50.190;19.178;2022-10-31T05:58:12;99158.70;;;7.41;84.35
41102;BME280;26845;50.190;19.178;2022-10-31T06:00:41;99157.59;;;7.39;84.55
41102;BME280;26845;50.190;19.178;2022-10-31T06:03:08;99164.78;;;7.43;84.84
41102;BME280;26845;50.190;19.178;2022-10-31T06:05:35;99154.31;;;7.37;84.64
41102;BME280;26845;50.190;19.178;2022-10-31T06:08:00;99152.92;;;7.37;84.67
41102;BME280;26845;50.190;19.178;2022-10-31T06:10:27;99157.31;;;7.41;85.02
41102;BME280;26845;50.190;19.178;2022-10-31T06:12:52;99160.55;;;7.51;85.05
41102;BME280;26845;50.190;19.178;2022-10-31T06:15:18;99171.02;;;7.56;84.87
41102;BME280;26845;50.190;19.178;2022-10-31T06:17:44;99170.75;;;7.58;84.80
41102;BME280;26845;50.190;19.178;2022-10-31T06:20:10;99169.61;;;7.61;84.96
41102;BME280;26845;50.190;19.178;2022-10-31T06:22:36;99169.59;;;7.64;84.91
41102;BME280;26845;50.190;19.178;2022-10-31T06:25:02;99171.77;;;7.70;85.27
41102;BME280;26845;50.190;19.178;2022-10-31T06:27:28;99179.20;;;7.74;85.31
41102;BME280;26845;50.190;19.178;2022-10-31T06:29:54;99174.45;;;7.80;85.20
41102;BME280;26845;50.190;19.178;2022-10-31T06:32:19;99183.55;;;7.85;85.00
41102;BME280;26845;50.190;19.178;2022-10-31T06:34:45;99178.50;;;7.90;85.02
41102;BME280;26845;50.190;19.178;2022-10-31T06:37:14;99178.76;;;7.91;84.96
41102;BME280;26845;50.190;19.178;2022-10-31T06:39:40;99174.59;;;7.94;85.09
41102;BME280;26845;50.190;19.178;2022-10-31T06:42:06;99176.75;;;7.99;85.23
41102;BME280;26845;50.190;19.178;2022-10-31T06:44:32;99182.25;;;8.04;85.35
41102;BME280;26845;50.190;19.178;2022-10-31T06:46:58;99180.02;;;8.06;85.34
41102;BME280;26845;50.190;19.178;2022-10-31T06:49:26;99182.46;;;8.10;85.52
41102;BME280;26845;50.190;19.178;2022-10-31T06:51:51;99178.52;;;8.17;85.64
41102;BME280;26845;50.190;19.178;2022-10-31T06:54:17;99185.13;;;8.23;85.45
41102;BME280;26845;50.190;19.178;2022-10-31T06:56:47;99188.69;;;8.26;85.47
41102;BME280;26845;50.190;19.178;2022-10-31T06:59:14;99183.97;;;8.27;85.41
41102;BME280;26845;50.190;19.178;2022-10-31T07:01:40;99183.39;;;8.30;85.70
41102;BME280;26845;50.190;19.178;2022-10-31T07:04:10;99190.27;;;8.35;85.88
41102;BME280;26845;50.190;19.178;2022-10-31T07:06:36;99187.47;;;8.38;85.81
41102;BME280;26845;50.190;19.178;2022-10-31T07:09:02;99194.66;;;8.41;85.99
41102;BME280;26845;50.190;19.178;2022-10-31T07:11:28;99191.53;;;8.48;86.18
41102;BME280;26845;50.190;19.178;2022-10-31T07:13:53;99191.69;;;8.59;86.41
41102;BME280;26845;50.190;19.178;2022-10-31T07:16:19;99194.60;;;8.70;86.42
41102;BME280;26845;50.190;19.178;2022-10-31T07:18:44;99198.11;;;8.78;86.57
41102;BME280;26845;50.190;19.178;2022-10-31T07:21:10;99204.62;;;8.90;87.18
41102;BME280;26845;50.190;19.178;2022-10-31T07:23:36;99202.02;;;8.99;87.48
41102;BME280;26845;50.190;19.178;2022-10-31T07:26:02;99204.41;;;9.08;87.42
41102;BME280;26845;50.190;19.178;2022-10-31T07:28:28;99204.27;;;9.18;87.50
41102;BME280;26845;50.190;19.178;2022-10-31T07:30:56;99206.38;;;9.27;87.64
41102;BME280;26845;50.190;19.178;2022-10-31T07:33:25;99204.86;;;9.37;88.04
41102;BME280;26845;50.190;19.178;2022-10-31T07:35:53;99207.18;;;9.49;88.55
41102;BME280;26845;50.190;19.178;2022-10-31T07:38:19;99206.47;;;9.59;88.61
41102;BME280;26845;50.190;19.178;2022-10-31T07:40:50;99208.26;;;9.69;88.46
41102;BME280;26845;50.190;19.178;2022-10-31T07:43:20;99216.33;;;9.84;88.76
41102;BME280;26845;50.190;19.178;2022-10-31T07:45:51;99208.59;;;10.00;88.85
41102;BME280;26845;50.190;19.178;2022-10-31T07:48:18;99204.47;;;10.14;88.88
41102;BME280;26845;50.190;19.178;2022-10-31T07:50:44;99202.02;;;10.26;88.77
41102;BME280;26845;50.190;19.178;2022-10-31T07:53:11;99206.02;;;10.39;88.83
41102;BME280;26845;50.190;19.178;2022-10-31T07:55:38;99207.97;;;10.52;88.92
41102;BME280;26845;50.190;19.178;2022-10-31T07:58:14;99206.59;;;10.66;89.13
41102;BME280;26845;50.190;19.178;2022-10-31T08:00:41;99208.24;;;10.81;89.07
41102;BME280;26845;50.190;19.178;2022-10-31T08:03:14;99196.88;;;10.94;89.10
41102;BME280;26845;50.190;19.178;2022-10-31T08:05:42;99198.41;;;11.14;89.18
41102;BME280;26845;50.190;19.178;2022-10-31T08:08:11;99205.16;;;11.35;89.10
41102;BME280;26845;50.190;19.178;2022-10-31T08:10:38;99198.30;;;11.55;89.10
41102;BME280;26845;50.190;19.178;2022-10-31T08:13:11;99198.54;;;11.70;88.95
41102;BME280;26845;50.190;19.178;2022-10-31T08:15:38;99201.82;;;11.83;88.68
41102;BME280;26845;50.190;19.178;2022-10-31T08:18:12;99201.23;;;11.98;88.55
41102;BME280;26845;50.190;19.178;2022-10-31T08:20:40;99199.59;;;12.08;88.51
41102;BME280;26845;50.190;19.178;2022-10-31T08:23:07;99200.34;;;12.22;88.66
41102;BME280;26845;50.190;19.178;2022-10-31T08:25:35;99197.83;;;12.43;88.54
41102;BME280;26845;50.190;19.178;2022-10-31T08:28:02;99202.71;;;12.69;88.31
41102;BME280;26845;50.190;19.178;2022-10-31T08:30:30;99206.78;;;13.02;88.26
41102;BME280;26845;50.190;19.178;2022-10-31T08:32:59;99209.61;;;13.40;88.06
41102;BME280;26845;50.190;19.178;2022-10-31T08:35:28;99204.56;;;13.77;87.68
41102;BME280;26845;50.190;19.178;2022-10-31T08:37:55;99199.59;;;14.17;87.58
41102;BME280;26845;50.190;19.178;2022-10-31T08:40:23;99197.02;;;14.53;87.16
41102;BME280;26845;50.190;19.178;2022-10-31T08:43:03;99192.18;;;14.94;86.90
41102;BME280;26845;50.190;19.178;2022-10-31T08:45:29;99189.71;;;15.37;86.00
41102;BME280;26845;50.190;19.178;2022-10-31T08:47:59;99194.41;;;15.75;85.70
41102;BME280;26845;50.190;19.178;2022-10-31T08:50:27;99189.09;;;16.15;85.44
41102;BME280;26845;50.190;19.178;2022-10-31T08:52:53;99193.20;;;16.51;84.49
41102;BME280;26845;50.190;19.178;2022-10-31T08:55:19;99191.19;;;16.85;84.71
41102;BME280;26845;50.190;19.178;2022-10-31T08:57:45;99194.12;;;17.19;84.13
41102;BME280;26845;50.190;19.178;2022-10-31T09:00:13;99198.41;;;17.41;82.26
41102;BME280;26845;50.190;19.178;2022-10-31T09:02:40;99202.38;;;17.65;81.31
41102;BME280;26845;50.190;19.178;2022-10-31T09:05:07;99200.59;;;17.79;82.00
41102;BME280;26845;50.190;19.178;2022-10-31T09:07:33;99193.02;;;18.01;81.74
41102;BME280;26845;50.190;19.178;2022-10-31T09:09:58;99197.41;;;18.20;78.62
41102;BME280;26845;50.190;19.178;2022-10-31T09:12:24;99201.37;;;18.26;80.27
41102;BME280;26845;50.190;19.178;2022-10-31T09:14:50;99203.83;;;18.49;78.90
41102;BME280;26845;50.190;19.178;2022-10-31T09:17:15;99198.76;;;18.55;78.26
41102;BME280;26845;50.190;19.178;2022-10-31T09:19:41;99205.48;;;18.50;77.67
41102;BME280;26845;50.190;19.178;2022-10-31T09:22:06;99202.08;;;18.66;79.45
41102;BME280;26845;50.190;19.178;2022-10-31T09:24:32;99202.66;;;19.10;78.69
41102;BME280;26845;50.190;19.178;2022-10-31T09:26:58;99202.34;;;19.47;78.97
41102;BME280;26845;50.190;19.178;2022-10-31T09:29:24;99204.92;;;19.71;78.05
41102;BME280;26845;50.190;19.178;2022-10-31T09:31:49;99199.41;;;20.04;76.96
41102;BME280;26845;50.190;19.178;2022-10-31T09:34:15;99201.84;;;20.25;77.25
41102;BME280;26845;50.190;19.178;2022-10-31T09:36:41;99200.54;;;20.52;75.00
41102;BME280;26845;50.190;19.178;2022-10-31T09:39:08;99195.88;;;20.40;73.22
41102;BME280;26845;50.190;19.178;2022-10-31T09:44:39;99203.47;;;20.88;75.54
41102;BME280;26845;50.190;19.178;2022-10-31T09:47:15;99203.06;;;21.36;75.43
41102;BME280;26845;50.190;19.178;2022-10-31T09:52:41;99206.84;;;21.70;72.91
41102;BME280;26845;50.190;19.178;2022-10-31T09:57:43;99199.58;;;22.16;73.11
41102;BME280;26845;50.190;19.178;2022-10-31T10:00:15;99196.88;;;22.40;71.05
41102;BME280;26845;50.190;19.178;2022-10-31T10:05:46;99199.90;;;22.95;72.63
41102;BME280;26845;50.190;19.178;2022-10-31T10:08:32;99198.46;;;23.40;71.04
41102;BME280;26845;50.190;19.178;2022-10-31T10:17:34;99195.12;;;23.54;69.88
41102;BME280;26845;50.190;19.178;2022-10-31T10:20:27;99193.30;;;23.87;69.70
41102;BME280;26845;50.190;19.178;2022-10-31T10:23:38;99193.55;;;23.92;66.16
41102;BME280;26845;50.190;19.178;2022-10-31T10:25:40;99190.09;;;23.65;67.89
41102;BME280;26845;50.190;19.178;2022-10-31T10:28:32;99187.89;;;23.99;68.38
41102;BME280;26845;50.190;19.178;2022-10-31T10:31:16;99184.36;;;24.23;67.74
41102;BME280;26845;50.190;19.178;2022-10-31T10:36:50;99182.22;;;24.44;64.99
41102;BME280;26845;50.190;19.178;2022-10-31T10:39:27;99177.98;;;24.52;65.91
41102;BME280;26845;50.190;19.178;2022-10-31T10:41:55;99181.69;;;24.81;64.46
41102;BME280;26845;50.190;19.178;2022-10-31T10:44:47;99177.44;;;24.99;65.60
41102;BME280;26845;50.190;19.178;2022-10-31T10:47:41;99181.53;;;25.41;64.90
41102;BME280;26845;50.190;19.178;2022-10-31T10:50:25;99174.78;;;25.71;64.93
41102;BME280;26845;50.190;19.178;2022-10-31T10:58:17;99169.19;;;26.59;63.14
41102;BME280;26845;50.190;19.178;2022-10-31T11:00:46;99174.98;;;26.75;61.79
41102;BME280;26845;50.190;19.178;2022-10-31T11:03:14;99172.94;;;26.79;62.11
41102;BME280;26845;50.190;19.178;2022-10-31T11:08:33;99167.55;;;27.21;61.59
41102;BME280;26845;50.190;19.178;2022-10-31T11:13:41;99170.89;;;27.54;60.40
41102;BME280;26845;50.190;19.178;2022-10-31T11:19:13;99152.49;;;27.77;59.93
41102;BME280;26845;50.190;19.178;2022-10-31T11:21:44;99154.64;;;27.89;58.82
41102;BME280;26845;50.190;19.178;2022-10-31T11:24:14;99155.70;;;27.87;58.89
41102;BME280;26845;50.190;19.178;2022-10-31T11:26:43;99151.11;;;27.74;56.26
41102;BME280;26845;50.190;19.178;2022-10-31T11:29:16;99151.59;;;27.46;57.37
41102;BME280;26845;50.190;19.178;2022-10-31T11:31:45;99149.76;;;27.48;57.02
41102;BME280;26845;50.190;19.178;2022-10-31T11:34:34;99150.34;;;27.51;57.01
41102;BME280;26845;50.190;19.178;2022-10-31T11:37:13;99147.13;;;27.45;55.75
41102;BME280;26845;50.190;19.178;2022-10-31T11:39:46;99146.91;;;27.48;56.19
41102;BME280;26845;50.190;19.178;2022-10-31T11:42:21;99145.44;;;27.51;55.48
41102;BME280;26845;50.190;19.178;2022-10-31T11:44:50;99145.38;;;27.58;55.41
41102;BME280;26845;50.190;19.178;2022-10-31T11:47:17;99146.09;;;27.66;54.34
41102;BME280;26845;50.190;19.178;2022-10-31T11:49:48;99150.13;;;27.31;54.29
41102;BME280;26845;50.190;19.178;2022-10-31T11:54:58;99149.69;;;26.80;53.60
41102;BME280;26845;50.190;19.178;2022-10-31T11:57:31;99149.20;;;26.63;52.92
41102;BME280;26845;50.190;19.178;2022-10-31T12:00:23;99144.37;;;26.56;52.46
41102;BME280;26845;50.190;19.178;2022-10-31T12:02:51;99144.62;;;26.50;51.92
41102;BME280;26845;50.190;19.178;2022-10-31T12:05:40;99140.84;;;26.67;52.88
41102;BME280;26845;50.190;19.178;2022-10-31T12:08:09;99134.25;;;27.04;52.99
41102;BME280;26845;50.190;19.178;2022-10-31T12:13:37;99136.53;;;26.97;50.15
41102;BME280;26845;50.190;19.178;2022-10-31T12:16:31;99133.89;;;26.98;51.69
41102;BME280;26845;50.190;19.178;2022-10-31T12:19:02;99132.16;;;27.34;51.75
41102;BME280;26845;50.190;19.178;2022-10-31T12:21:43;99129.73;;;27.51;50.81
41102;BME280;26845;50.190;19.178;2022-10-31T12:35:51;99119.88;;;27.75;51.12
41102;BME280;26845;50.190;19.178;2022-10-31T12:41:20;99122.73;;;27.75;50.23
41102;BME280;26845;50.190;19.178;2022-10-31T12:44:12;99114.55;;;27.80;50.34
41102;BME280;26845;50.190;19.178;2022-10-31T12:46:55;99113.62;;;27.91;50.10
41102;BME280;26845;50.190;19.178;2022-10-31T12:50:10;99110.17;;;28.07;50.21
41102;BME280;26845;50.190;19.178;2022-10-31T12:58:45;99100.72;;;28.56;49.19
41102;BME280;26845;50.190;19.178;2022-10-31T13:01:16;99108.34;;;28.20;47.58
41102;BME280;26845;50.190;19.178;2022-10-31T13:04:12;99107.03;;;27.75;48.44
41102;BME280;26845;50.190;19.178;2022-10-31T13:07:04;99099.30;;;27.75;48.62
41102;BME280;26845;50.190;19.178;2022-10-31T13:09:44;99097.81;;;27.83;48.41
41102;BME280;26845;50.190;19.178;2022-10-31T13:12:16;99101.39;;;27.90;48.87
41102;BME280;26845;50.190;19.178;2022-10-31T13:14:50;99095.34;;;28.00;48.74
41102;BME280;26845;50.190;19.178;2022-10-31T13:17:38;99105.59;;;28.13;48.56
41102;BME280;26845;50.190;19.178;2022-10-31T13:20:27;99095.06;;;28.21;48.27
41102;BME280;26845;50.190;19.178;2022-10-31T13:23:16;99096.16;;;28.16;47.90
41102;BME280;26845;50.190;19.178;2022-10-31T13:26:01;99097.49;;;28.08;47.54
41102;BME280;26845;50.190;19.178;2022-10-31T13:28:45;99100.34;;;27.54;46.21
41102;BME280;26845;50.190;19.178;2022-10-31T13:31:18;99101.80;;;27.32;47.18
41102;BME280;26845;50.190;19.178;2022-10-31T13:33:47;99094.87;;;27.33;47.50
41102;BME280;26845;50.190;19.178;2022-10-31T13:36:40;99098.22;;;27.43;47.44
41102;BME280;26845;50.190;19.178;2022-10-31T13:42:04;99091.83;;;27.51;47.39
41102;BME280;26845;50.190;19.178;2022-10-31T13:44:40;99095.30;;;27.50;47.49
41102;BME280;26845;50.190;19.178;2022-10-31T13:47:25;99096.96;;;27.48;47.37
41102;BME280;26845;50.190;19.178;2022-10-31T13:50:04;99097.37;;;27.46;47.09
41102;BME280;26845;50.190;19.178;2022-10-31T13:52:50;99091.66;;;27.46;47.26
41102;BME280;26845;50.190;19.178;2022-10-31T13:55:37;99094.77;;;27.44;47.12
41102;BME280;26845;50.190;19.178;2022-10-31T13:58:21;99096.88;;;27.36;47.20
41102;BME280;26845;50.190;19.178;2022-10-31T14:01:21;99098.99;;;27.28;47.04
41102;BME280;26845;50.190;19.178;2022-10-31T14:04:00;99096.63;;;27.20;47.19
41102;BME280;26845;50.190;19.178;2022-10-31T14:06:40;99098.34;;;27.10;47.16
41102;BME280;26845;50.190;19.178;2022-10-31T14:12:01;99093.84;;;26.86;46.99
41102;BME280;26845;50.190;19.178;2022-10-31T14:14:48;99095.23;;;26.67;47.10
41102;BME280;26845;50.190;19.178;2022-10-31T14:17:27;99093.11;;;26.45;46.99
41102;BME280;26845;50.190;19.178;2022-10-31T14:20:03;99096.88;;;26.28;46.83
41102;BME280;26845;50.190;19.178;2022-10-31T14:22:31;99088.82;;;26.12;47.12
41102;BME280;26845;50.190;19.178;2022-10-31T14:24:58;99085.86;;;25.97;47.03
41102;BME280;26845;50.190;19.178;2022-10-31T14:30:07;99088.83;;;25.57;47.40
41102;BME280;26845;50.190;19.178;2022-10-31T14:32:42;99089.70;;;25.37;47.25
41102;BME280;26845;50.190;19.178;2022-10-31T14:35:15;99087.86;;;25.13;47.24
41102;BME280;26845;50.190;19.178;2022-10-31T14:40:47;99084.64;;;24.64;47.28
41102;BME280;26845;50.190;19.178;2022-10-31T14:46:17;99083.31;;;24.12;47.56
41102;BME280;26845;50.190;19.178;2022-10-31T14:51:46;99076.42;;;23.67;48.04
41102;BME280;26845;50.190;19.178;2022-10-31T14:54:23;99077.89;;;23.36;48.31
41102;BME280;26845;50.190;19.178;2022-10-31T14:56:53;99070.41;;;23.03;48.58
41102;BME280;26845;50.190;19.178;2022-10-31T14:59:27;99076.80;;;22.68;48.89